Airport Name : Bari

Other Name : Bari

ICAO : LIBD

IATA : BRI

FAA :

Latitude : 41.138856

Longitude : 16.760594

Country : Italy

Local Date and Time : 18 Jul 2024 18:42

 

TAF (Terminal Aerodrome Forecast)

TAF LIBD 181100Z 1812/1912 36010KT CAVOK BECMG 1815/1817 VRB05KT BECMG 1905/1907 34010KT

 

METAR (METeorological Aerodrome Report)

LIBD 181620Z 01005KT 320V070 CAVOK 32/23 Q1014

LIBD 181550Z 01008KT 330V040 CAVOK 31/24 Q1014

LIBD 181520Z 36007KT 320V040 CAVOK 31/24 Q1014

LIBD 181450Z 36009KT 330V040 CAVOK 31/24 Q1014

LIBD 181420Z 36007KT 310V050 CAVOK 32/25 Q1014

LIBD 181350Z 36007KT 310V040 CAVOK 32/24 Q1014

LIBD 181320Z 35010KT 320V030 CAVOK 32/23 Q1015

LIBD 181250Z 35007KT 300V020 CAVOK 33/22 Q1015